Time;durP1;ratioP1;P1;durP2;ratioP2;P2;SDS_P1;SDS_P2;PMS_P1;PMS_P2;Temp;Humidity;BMP_temperature;BMP_pressure;BME280_temperature;BME280_humidity;BME280_pressure;Samples;Min_cycle;Max_cycle;Signal;HPM_P1;HPM_P2
2023/07/22 00:00:49;;;;;;;16.45;5.93;;;12.20;99.90;;;;;;5082385;28;20085;-68
2023/07/22 00:03:15;;;;;;;14.57;5.47;;;12.30;99.90;;;;;;5068459;28;20045;-69
2023/07/22 00:05:40;;;;;;;14.68;5.97;;;12.30;99.90;;;;;;5050916;28;20045;-68
2023/07/22 00:08:06;;;;;;;15.45;6.80;;;12.30;99.90;;;;;;5069912;28;20400;-68
2023/07/22 00:10:31;;;;;;;15.70;6.65;;;12.30;99.90;;;;;;5050502;28;20055;-69
2023/07/22 00:12:57;;;;;;;14.10;5.70;;;12.20;99.90;;;;;;5036533;28;20571;-68
2023/07/22 00:15:23;;;;;;;14.13;5.72;;;12.20;99.90;;;;;;5050327;28;20029;-69
2023/07/22 00:17:50;;;;;;;13.00;5.70;;;12.20;99.90;;;;;;5050692;28;20044;-69
2023/07/22 00:20:16;;;;;;;14.98;6.10;;;12.20;99.90;;;;;;5067601;28;20126;-69
2023/07/22 00:22:42;;;;;;;17.50;5.78;;;12.20;99.90;;;;;;5072087;28;20048;-68
2023/07/22 00:25:10;;;;;;;10.02;5.10;;;12.10;99.90;;;;;;5087283;28;20097;-69
2023/07/22 00:27:37;;;;;;;15.00;5.75;;;12.10;99.90;;;;;;5087766;28;20079;-66
2023/07/22 00:30:05;;;;;;;14.73;6.28;;;12.10;99.90;;;;;;5071806;28;20121;-66
2023/07/22 00:32:30;;;;;;;11.45;5.57;;;12.00;99.90;;;;;;5070640;28;20073;-68
2023/07/22 00:34:56;;;;;;;14.90;5.75;;;12.00;99.90;;;;;;5034750;28;20427;-66
2023/07/22 00:37:22;;;;;;;12.48;5.38;;;11.90;99.90;;;;;;5050602;28;20370;-67
2023/07/22 00:39:47;;;;;;;13.57;5.82;;;11.90;99.90;;;;;;5029509;28;20052;-66
2023/07/22 00:42:13;;;;;;;15.27;5.82;;;11.70;99.90;;;;;;5032563;28;20040;-66
2023/07/22 00:44:39;;;;;;;14.40;5.88;;;11.70;99.90;;;;;;5029393;28;20831;-65
2023/07/22 00:47:04;;;;;;;17.80;6.40;;;11.70;99.90;;;;;;5031344;28;20052;-66
2023/07/22 00:49:31;;;;;;;12.48;6.13;;;11.60;99.90;;;;;;5046766;28;20076;-66
2023/07/22 00:52:04;;;;;;;12.93;5.97;;;11.60;99.90;;;;;;5029736;28;20041;-66
2023/07/22 00:54:31;;;;;;;11.07;5.28;;;11.60;99.90;;;;;;5050164;28;20032;-66
2023/07/22 00:56:57;;;;;;;9.80;5.40;;;11.60;99.90;;;;;;5048380;28;20040;-66
2023/07/22 00:59:23;;;;;;;13.93;6.32;;;11.50;99.90;;;;;;5048466;28;20070;-66
2023/07/22 01:01:49;;;;;;;14.38;6.15;;;11.50;99.90;;;;;;5048853;28;20495;-65
2023/07/22 01:04:16;;;;;;;12.43;5.60;;;11.40;99.90;;;;;;5045092;28;20045;-66
2023/07/22 01:06:44;;;;;;;13.23;6.15;;;11.50;99.90;;;;;;5031558;28;20511;-67
2023/07/22 01:09:09;;;;;;;17.25;6.75;;;11.50;99.90;;;;;;5028853;28;20049;-68
2023/07/22 01:11:35;;;;;;;15.93;5.72;;;11.50;99.90;;;;;;5030723;28;20099;-67
2023/07/22 01:14:01;;;;;;;12.88;5.28;;;11.50;99.90;;;;;;5029879;28;20093;-68
2023/07/22 01:16:28;;;;;;;17.45;5.82;;;11.50;99.90;;;;;;5028393;28;20060;-67
2023/07/22 01:18:54;;;;;;;15.63;5.72;;;11.40;99.90;;;;;;5041035;28;20085;-68
2023/07/22 01:21:22;;;;;;;11.88;5.88;;;11.40;99.90;;;;;;5048180;28;20055;-68
2023/07/22 01:23:48;;;;;;;14.27;6.32;;;11.30;99.90;;;;;;5068033;28;20151;-68
2023/07/22 01:26:14;;;;;;;13.60;5.22;;;11.20;99.90;;;;;;5048831;28;20115;-67
2023/07/22 01:28:40;;;;;;;13.23;6.28;;;11.20;99.90;;;;;;5066048;28;20044;-68
2023/07/22 01:31:05;;;;;;;16.42;6.18;;;11.10;99.90;;;;;;5050464;28;20045;-67
2023/07/22 01:33:31;;;;;;;13.52;6.07;;;11.20;99.90;;;;;;5048009;28;20388;-68
2023/07/22 01:35:57;;;;;;;13.90;5.90;;;11.20;99.90;;;;;;5049833;28;20119;-67
2023/07/22 01:38:23;;;;;;;14.25;5.05;;;11.20;99.90;;;;;;5050045;28;20617;-68
2023/07/22 01:40:48;;;;;;;13.13;5.82;;;11.20;99.90;;;;;;5048954;28;20029;-68
2023/07/22 01:43:14;;;;;;;14.65;5.72;;;11.10;99.90;;;;;;5068400;28;20138;-68
2023/07/22 01:45:39;;;;;;;13.07;5.38;;;11.10;99.90;;;;;;5066605;28;20595;-68
2023/07/22 01:48:06;;;;;;;12.60;5.63;;;11.00;99.90;;;;;;5049868;28;20417;-67
2023/07/22 01:50:32;;;;;;;11.40;5.63;;;10.90;99.90;;;;;;5041198;28;20399;-68
2023/07/22 01:52:57;;;;;;;13.32;5.65;;;10.80;99.90;;;;;;5030656;28;20090;-67
2023/07/22 01:55:23;;;;;;;11.73;5.15;;;10.80;99.90;;;;;;5048596;28;20067;-68
2023/07/22 01:57:48;;;;;;;10.13;5.05;;;10.90;99.90;;;;;;5046065;28;20037;-67
2023/07/22 02:00:15;;;;;;;12.77;5.60;;;10.80;99.90;;;;;;5030857;28;20049;-67
2023/07/22 02:02:43;;;;;;;11.23;5.40;;;10.80;99.90;;;;;;5046542;28;20445;-68
2023/07/22 02:05:10;;;;;;;11.75;5.20;;;10.80;99.90;;;;;;5029284;28;20428;-68
2023/07/22 02:07:36;;;;;;;12.32;5.35;;;10.70;99.90;;;;;;5030533;28;20484;-67
2023/07/22 02:10:02;;;;;;;12.00;5.65;;;10.70;99.90;;;;;;5046734;28;20076;-68
2023/07/22 02:12:27;;;;;;;13.10;5.47;;;10.70;99.90;;;;;;5031276;28;20073;-68
2023/07/22 02:14:53;;;;;;;13.88;5.60;;;10.60;99.90;;;;;;5028685;28;20148;-68
2023/07/22 02:17:20;;;;;;;12.88;4.93;;;10.60;99.90;;;;;;5013234;28;20111;-67
2023/07/22 02:19:46;;;;;;;14.40;5.65;;;10.60;99.90;;;;;;5046972;28;20071;-68
2023/07/22 02:22:12;;;;;;;12.30;5.22;;;10.60;99.90;;;;;;5049249;28;20052;-68
2023/07/22 02:24:38;;;;;;;13.60;5.43;;;10.60;99.90;;;;;;5051055;28;20049;-70
2023/07/22 02:27:04;;;;;;;10.75;5.22;;;10.60;99.90;;;;;;5038232;28;20053;-68
2023/07/22 02:29:31;;;;;;;13.13;5.68;;;10.60;99.90;;;;;;5029381;28;20045;-67
2023/07/22 02:31:57;;;;;;;12.30;5.43;;;10.60;99.90;;;;;;5029172;28;20083;-68
2023/07/22 02:34:23;;;;;;;12.00;5.03;;;10.60;99.90;;;;;;5044646;28;20041;-67
2023/07/22 02:36:48;;;;;;;14.05;5.30;;;10.60;99.90;;;;;;5049326;28;20044;-68
2023/07/22 02:39:14;;;;;;;11.50;5.40;;;10.70;99.90;;;;;;5046396;28;20484;-67
2023/07/22 02:41:40;;;;;;;12.70;5.55;;;10.70;99.90;;;;;;5048496;28;20080;-68
2023/07/22 02:44:05;;;;;;;11.43;4.97;;;10.70;99.90;;;;;;5028118;28;20113;-68
2023/07/22 02:46:31;;;;;;;11.27;4.70;;;10.80;99.90;;;;;;5058323;28;20032;-67
2023/07/22 02:48:58;;;;;;;14.38;5.38;;;10.90;99.90;;;;;;5052462;28;20047;-68
2023/07/22 02:51:24;;;;;;;10.77;5.20;;;10.90;99.90;;;;;;5070062;28;20066;-72
2023/07/22 02:53:49;;;;;;;11.43;5.38;;;10.90;99.90;;;;;;5072022;28;20040;-68
2023/07/22 02:56:15;;;;;;;12.45;4.60;;;10.90;99.90;;;;;;5036134;28;20170;-68
2023/07/22 02:58:41;;;;;;;14.85;5.60;;;10.90;99.90;;;;;;5052231;28;20052;-67
2023/07/22 03:01:08;;;;;;;13.93;5.28;;;10.90;99.90;;;;;;5052858;28;20053;-68
2023/07/22 03:03:34;;;;;;;11.77;4.90;;;10.90;99.90;;;;;;5069077;28;20059;-68
2023/07/22 03:06:01;;;;;;;12.95;5.35;;;10.80;99.90;;;;;;5071170;28;20197;-68
2023/07/22 03:08:27;;;;;;;16.23;5.60;;;10.80;99.90;;;;;;5070615;28;20036;-68
2023/07/22 03:10:53;;;;;;;11.55;5.13;;;10.80;99.90;;;;;;5052432;28;20097;-68
2023/07/22 03:13:18;;;;;;;10.63;5.28;;;10.70;99.90;;;;;;5035958;28;20586;-69
2023/07/22 03:15:44;;;;;;;10.70;5.15;;;10.70;99.90;;;;;;5048671;28;20044;-67
2023/07/22 03:18:11;;;;;;;10.77;4.70;;;10.70;99.90;;;;;;5052783;28;20094;-68
2023/07/22 03:20:37;;;;;;;14.70;5.68;;;10.70;99.90;;;;;;5068891;28;20056;-68
2023/07/22 03:23:04;;;;;;;9.63;4.97;;;10.80;99.90;;;;;;5053374;28;20075;-68
2023/07/22 03:25:30;;;;;;;11.32;5.50;;;10.80;99.90;;;;;;5070372;28;20045;-68
2023/07/22 03:27:56;;;;;;;12.85;5.82;;;10.80;99.90;;;;;;5050651;28;20086;-67
2023/07/22 03:30:23;;;;;;;16.13;6.30;;;10.80;99.90;;;;;;5053565;28;20075;-68
2023/07/22 03:32:50;;;;;;;14.35;6.63;;;10.80;99.90;;;;;;5069118;28;20044;-68
2023/07/22 03:35:19;;;;;;;15.32;6.50;;;10.80;99.90;;;;;;5068783;28;20064;-67
2023/07/22 03:37:44;;;;;;;14.68;5.78;;;10.70;99.90;;;;;;5052601;28;20392;-68
2023/07/22 03:40:14;;;;;;;14.60;5.82;;;10.80;99.90;;;;;;5069200;28;20044;-68
2023/07/22 03:42:40;;;;;;;15.43;6.80;;;10.70;99.90;;;;;;5071698;28;20052;-67
2023/07/22 03:45:07;;;;;;;15.30;6.43;;;10.70;99.90;;;;;;5050722;28;20110;-68
2023/07/22 03:47:33;;;;;;;13.98;6.50;;;10.80;99.90;;;;;;5069427;28;20040;-68
2023/07/22 03:49:58;;;;;;;18.70;7.35;;;10.90;99.90;;;;;;5057488;28;20122;-68
2023/07/22 03:52:24;;;;;;;18.38;7.45;;;11.00;99.90;;;;;;5069846;28;20936;-68
2023/07/22 03:54:49;;;;;;;16.95;6.40;;;11.00;99.90;;;;;;5052839;28;20048;-68
2023/07/22 03:57:15;;;;;;;15.90;7.10;;;11.00;99.90;;;;;;5050029;28;20488;-69
2023/07/22 03:59:40;;;;;;;20.65;7.20;;;11.20;99.90;;;;;;5069584;28;20078;-68
2023/07/22 04:02:06;;;;;;;20.05;8.10;;;11.20;99.90;;;;;;5035186;28;20052;-68
2023/07/22 04:04:32;;;;;;;15.75;7.00;;;11.30;99.90;;;;;;5049240;28;20048;-68
2023/07/22 04:06:57;;;;;;;20.38;8.00;;;11.40;99.90;;;;;;5071294;28;20119;-68
2023/07/22 04:09:23;;;;;;;20.10;7.78;;;11.40;99.90;;;;;;5049971;28;20082;-68
2023/07/22 04:11:48;;;;;;;20.55;7.65;;;11.50;99.90;;;;;;5070639;28;20051;-68
2023/07/22 04:14:14;;;;;;;18.92;8.32;;;11.50;99.90;;;;;;5050249;28;20040;-68
2023/07/22 04:16:40;;;;;;;20.42;7.60;;;11.60;99.90;;;;;;5051336;28;20044;-68
2023/07/22 04:19:06;;;;;;;21.88;8.35;;;11.60;99.90;;;;;;5049378;28;20036;-68
2023/07/22 04:21:31;;;;;;;23.75;8.85;;;11.60;99.90;;;;;;5068569;28;20036;-68
2023/07/22 04:23:57;;;;;;;23.13;8.10;;;11.70;99.90;;;;;;5064445;28;20115;-67
2023/07/22 04:26:22;;;;;;;16.98;7.43;;;11.70;99.90;;;;;;5088325;28;20040;-68
2023/07/22 04:28:48;;;;;;;18.00;7.32;;;11.70;99.90;;;;;;5070124;28;20072;-68
2023/07/22 04:31:13;;;;;;;21.50;8.60;;;11.80;99.90;;;;;;5070882;28;20036;-68
2023/07/22 04:33:41;;;;;;;21.20;8.05;;;11.80;99.90;;;;;;5087662;28;20055;-68
2023/07/22 04:36:07;;;;;;;21.25;9.30;;;11.90;99.90;;;;;;5090056;28;20043;-68
2023/07/22 04:38:32;;;;;;;21.45;8.15;;;12.00;99.90;;;;;;5069518;28;20036;-68
2023/07/22 04:41:00;;;;;;;20.80;8.80;;;12.10;99.90;;;;;;5072061;28;20036;-67
2023/07/22 04:43:26;;;;;;;15.93;7.60;;;12.20;99.90;;;;;;5048744;28;20052;-68
2023/07/22 04:45:52;;;;;;;17.48;7.90;;;12.20;99.90;;;;;;5030030;28;20076;-69
2023/07/22 04:48:20;;;;;;;18.95;8.30;;;12.40;99.90;;;;;;5049498;28;20080;-69
2023/07/22 04:50:45;;;;;;;22.75;9.07;;;12.40;99.90;;;;;;5046028;28;20526;-69
2023/07/22 04:53:16;;;;;;;19.08;8.60;;;12.40;99.90;;;;;;5031758;28;20115;-69
2023/07/22 04:55:41;;;;;;;20.65;8.35;;;12.50;99.90;;;;;;5049006;28;20045;-68
2023/07/22 04:58:08;;;;;;;24.42;8.75;;;12.50;99.90;;;;;;5029361;28;20087;-69
2023/07/22 05:00:34;;;;;;;20.50;8.50;;;12.50;99.90;;;;;;5031621;28;20041;-69
2023/07/22 05:03:00;;;;;;;19.60;8.35;;;12.70;99.90;;;;;;5047165;28;20045;-68
2023/07/22 05:05:26;;;;;;;21.65;8.30;;;12.80;99.90;;;;;;5029584;28;20087;-68
2023/07/22 05:07:52;;;;;;;18.73;8.73;;;12.80;99.90;;;;;;5048211;28;20045;-68
2023/07/22 05:10:19;;;;;;;21.38;8.38;;;13.00;99.90;;;;;;5028770;28;20049;-68
2023/07/22 05:12:45;;;;;;;21.73;9.93;;;13.00;99.90;;;;;;5050232;28;20045;-68
2023/07/22 05:15:12;;;;;;;20.92;9.45;;;13.10;99.90;;;;;;5028693;28;20040;-68
2023/07/22 05:17:37;;;;;;;23.23;9.18;;;13.20;99.90;;;;;;5048461;28;20464;-68
2023/07/22 05:20:06;;;;;;;18.83;9.02;;;13.20;99.90;;;;;;5046531;28;20043;-68
2023/07/22 05:22:32;;;;;;;20.77;9.10;;;13.20;99.90;;;;;;5063627;28;20048;-69
2023/07/22 05:24:58;;;;;;;18.88;8.30;;;13.20;99.90;;;;;;5051401;28;20055;-69
2023/07/22 05:27:25;;;;;;;20.15;9.45;;;13.20;99.90;;;;;;5067724;28;20352;-68
2023/07/22 05:29:51;;;;;;;18.48;8.82;;;13.20;99.90;;;;;;5049335;28;20403;-68
2023/07/22 05:32:16;;;;;;;20.13;9.10;;;13.20;99.90;;;;;;5054695;28;20192;-69
2023/07/22 05:34:42;;;;;;;20.00;8.68;;;13.30;99.90;;;;;;5046080;28;20041;-68
2023/07/22 05:37:07;;;;;;;20.40;9.02;;;13.30;99.90;;;;;;5015058;28;20125;-69
2023/07/22 05:39:33;;;;;;;19.42;8.48;;;13.30;99.90;;;;;;5028591;28;20147;-69
2023/07/22 05:41:58;;;;;;;18.70;8.77;;;13.40;99.90;;;;;;5031980;28;20049;-69
2023/07/22 05:44:24;;;;;;;16.45;7.53;;;13.40;99.90;;;;;;5035200;28;20127;-70
2023/07/22 05:46:49;;;;;;;22.05;9.60;;;13.50;99.90;;;;;;5067299;28;20129;-69
2023/07/22 05:49:15;;;;;;;16.23;8.23;;;13.60;99.90;;;;;;5030496;28;20045;-69
2023/07/22 05:51:41;;;;;;;19.48;9.35;;;13.60;99.90;;;;;;5048452;28;20041;-69
2023/07/22 05:54:06;;;;;;;17.90;8.82;;;13.60;99.90;;;;;;5069572;28;20033;-69
2023/07/22 05:56:32;;;;;;;18.20;8.50;;;13.60;99.90;;;;;;5067398;28;20499;-68
2023/07/22 05:58:57;;;;;;;21.75;9.68;;;13.60;99.90;;;;;;5067891;28;20086;-68
2023/07/22 06:01:26;;;;;;;18.77;9.07;;;13.60;99.90;;;;;;5067023;28;20513;-69
2023/07/22 06:03:52;;;;;;;18.75;8.32;;;13.50;99.90;;;;;;5046173;28;20322;-70
2023/07/22 06:06:17;;;;;;;21.40;9.13;;;13.60;99.90;;;;;;5065643;28;20044;-69
2023/07/22 06:08:43;;;;;;;19.58;8.98;;;13.60;99.90;;;;;;5030584;28;20593;-68
2023/07/22 06:11:08;;;;;;;19.30;8.60;;;13.60;99.90;;;;;;5048658;28;20094;-68
2023/07/22 06:13:34;;;;;;;19.33;8.40;;;13.60;99.90;;;;;;5031413;28;20105;-69
2023/07/22 06:15:59;;;;;;;23.83;9.25;;;13.60;99.90;;;;;;5065573;28;20048;-69
2023/07/22 06:18:25;;;;;;;17.25;8.23;;;13.70;99.90;;;;;;5031862;28;20032;-68
2023/07/22 06:20:51;;;;;;;20.40;9.25;;;13.70;99.90;;;;;;5048386;28;20075;-69
2023/07/22 06:23:16;;;;;;;21.67;9.30;;;13.80;99.90;;;;;;5070875;28;20456;-69
2023/07/22 06:25:42;;;;;;;19.95;8.80;;;13.80;99.90;;;;;;5051365;28;20095;-68
2023/07/22 06:28:08;;;;;;;20.08;8.50;;;14.00;99.90;;;;;;5050911;28;20463;-69
2023/07/22 06:30:33;;;;;;;17.17;8.57;;;14.10;99.90;;;;;;5052894;28;20041;-68
2023/07/22 06:32:59;;;;;;;23.35;9.05;;;14.10;99.90;;;;;;5034077;28;20081;-68
2023/07/22 06:35:24;;;;;;;17.27;9.07;;;14.20;99.90;;;;;;5068267;28;20036;-68
2023/07/22 06:37:50;;;;;;;18.48;8.57;;;14.20;99.90;;;;;;5035400;28;20043;-69
2023/07/22 06:40:16;;;;;;;22.55;8.98;;;14.30;99.90;;;;;;5070535;28;20491;-68
2023/07/22 06:42:41;;;;;;;21.58;10.18;;;14.40;99.90;;;;;;5070571;28;20468;-70
2023/07/22 06:45:07;;;;;;;18.63;8.73;;;14.50;99.90;;;;;;5051392;28;20055;-68
2023/07/22 06:47:33;;;;;;;17.83;8.70;;;14.80;99.90;;;;;;5053338;28;20071;-69
2023/07/22 06:49:58;;;;;;;15.50;8.50;;;15.10;99.90;;;;;;5043667;28;20044;-69
2023/07/22 06:52:24;;;;;;;17.42;8.57;;;15.60;99.90;;;;;;5062304;28;20151;-68
2023/07/22 06:54:49;;;;;;;17.40;8.70;;;16.00;99.90;;;;;;5048086;28;20051;-70
2023/07/22 06:57:15;;;;;;;17.95;8.15;;;16.20;99.90;;;;;;5048797;28;20043;-70
2023/07/22 06:59:41;;;;;;;15.57;8.18;;;16.30;99.90;;;;;;5067888;28;20047;-70
2023/07/22 07:02:07;;;;;;;16.55;7.68;;;16.60;99.90;;;;;;5067322;28;20037;-69
2023/07/22 07:04:32;;;;;;;15.30;8.23;;;16.70;99.90;;;;;;5068808;28;20071;-69
2023/07/22 07:06:59;;;;;;;15.95;7.80;;;16.80;99.90;;;;;;5053081;28;20074;-68
2023/07/22 07:09:25;;;;;;;12.93;7.30;;;16.80;99.90;;;;;;5068422;28;20040;-69
2023/07/22 07:11:51;;;;;;;14.25;7.10;;;16.80;99.90;;;;;;5054036;28;20446;-69
2023/07/22 07:14:17;;;;;;;15.00;8.65;;;16.80;99.90;;;;;;5044063;28;20043;-70
2023/07/22 07:16:43;;;;;;;12.50;6.97;;;16.80;99.90;;;;;;5071459;28;20037;-69
2023/07/22 07:19:09;;;;;;;14.45;7.47;;;16.80;99.90;;;;;;5034855;28;20099;-69
2023/07/22 07:21:34;;;;;;;16.58;8.02;;;16.90;99.70;;;;;;5037601;28;20861;-68
2023/07/22 07:24:00;;;;;;;13.88;7.60;;;16.90;98.80;;;;;;5042904;28;20097;-69
2023/07/22 07:26:25;;;;;;;15.82;7.60;;;16.90;98.30;;;;;;5031806;28;20423;-70
2023/07/22 07:28:52;;;;;;;16.38;8.50;;;16.90;97.50;;;;;;5032379;28;20041;-68
2023/07/22 07:31:17;;;;;;;16.35;8.93;;;16.90;97.70;;;;;;5048546;28;20075;-69
2023/07/22 07:33:43;;;;;;;16.73;8.10;;;17.00;97.20;;;;;;5049938;28;20037;-68
2023/07/22 07:36:09;;;;;;;16.13;8.90;;;17.10;97.00;;;;;;5045958;28;20175;-68
2023/07/22 07:38:35;;;;;;;17.45;8.55;;;17.20;96.90;;;;;;5053574;28;20037;-68
2023/07/22 07:41:03;;;;;;;16.85;9.88;;;17.10;96.60;;;;;;5071024;28;20637;-69
2023/07/22 07:43:29;;;;;;;14.70;8.10;;;17.00;93.70;;;;;;5050321;28;20098;-69
2023/07/22 07:46:14;;;;;;;17.08;8.70;;;17.10;96.20;;;;;;5051611;28;20373;-68
2023/07/22 07:48:40;;;;;;;20.60;10.20;;;17.20;93.70;;;;;;5067600;28;20622;-68
2023/07/22 07:51:06;;;;;;;17.85;8.60;;;17.30;95.90;;;;;;5049710;28;20102;-68
2023/07/22 07:53:31;;;;;;;14.43;8.48;;;17.40;95.30;;;;;;5069050;28;20353;-70
2023/07/22 07:55:57;;;;;;;15.13;7.90;;;17.40;95.40;;;;;;5069536;28;20105;-71
2023/07/22 07:58:22;;;;;;;16.15;8.30;;;17.70;95.30;;;;;;5048843;28;20136;-68
2023/07/22 08:00:48;;;;;;;13.77;8.05;;;17.90;94.70;;;;;;5067887;28;20044;-68
2023/07/22 08:03:13;;;;;;;17.30;8.70;;;18.10;94.30;;;;;;5048973;28;20055;-70
2023/07/22 08:05:39;;;;;;;12.75;7.63;;;18.20;93.70;;;;;;5051111;28;20044;-71
2023/07/22 08:08:05;;;;;;;13.48;7.88;;;18.60;92.60;;;;;;5040433;28;20115;-67
2023/07/22 08:10:31;;;;;;;13.57;7.32;;;19.00;91.70;;;;;;5069101;28;20194;-68
2023/07/22 08:12:56;;;;;;;13.02;6.68;;;19.10;91.50;;;;;;5067251;28;20047;-69
2023/07/22 08:15:22;;;;;;;18.00;6.85;;;19.30;90.60;;;;;;5067718;28;20115;-69
2023/07/22 08:17:47;;;;;;;14.13;6.72;;;19.20;89.50;;;;;;5051605;28;20508;-66
2023/07/22 08:20:13;;;;;;;12.15;7.22;;;19.30;89.00;;;;;;5063238;28;20059;-67
2023/07/22 08:22:39;;;;;;;11.40;6.65;;;19.00;87.20;;;;;;5065754;28;20052;-68
2023/07/22 08:25:05;;;;;;;12.40;7.07;;;19.20;86.40;;;;;;5047865;28;20048;-68
2023/07/22 08:27:30;;;;;;;13.63;7.57;;;18.90;85.10;;;;;;5043508;28;20091;-67
2023/07/22 08:29:56;;;;;;;13.20;7.18;;;18.70;83.70;;;;;;5026700;28;20135;-70
2023/07/22 08:32:21;;;;;;;15.27;7.40;;;18.60;83.30;;;;;;5043173;28;20068;-70
2023/07/22 08:34:47;;;;;;;15.07;7.97;;;18.60;84.50;;;;;;5044392;28;20045;-67
2023/07/22 08:37:12;;;;;;;13.90;7.00;;;18.50;84.00;;;;;;5040347;28;20089;-71
2023/07/22 08:39:38;;;;;;;14.52;8.40;;;18.70;84.10;;;;;;5045262;28;20071;-68
2023/07/22 08:42:05;;;;;;;14.90;8.00;;;18.90;83.80;;;;;;5066447;28;20076;-68
2023/07/22 08:44:36;;;;;;;13.93;8.05;;;19.20;83.30;;;;;;5041258;28;20146;-66
2023/07/22 08:47:05;;;;;;;15.48;8.70;;;19.30;81.30;;;;;;5045049;28;20318;-69
2023/07/22 08:49:32;;;;;;;15.98;8.65;;;19.00;81.70;;;;;;5029182;28;20045;-66
2023/07/22 08:52:00;;;;;;;17.00;8.25;;;19.00;82.50;;;;;;5025699;28;20408;-69
2023/07/22 08:54:26;;;;;;;14.43;7.20;;;18.80;81.80;;;;;;5046447;28;20037;-67
2023/07/22 08:56:51;;;;;;;17.25;8.98;;;18.70;82.90;;;;;;5044024;28;20431;-67
2023/07/22 08:59:18;;;;;;;15.07;8.05;;;18.70;83.30;;;;;;5044483;28;20090;-68
2023/07/22 09:01:45;;;;;;;14.65;7.88;;;18.50;84.30;;;;;;5043596;28;20450;-67
2023/07/22 09:04:11;;;;;;;15.90;8.00;;;18.50;85.50;;;;;;5021880;28;20530;-67
2023/07/22 09:06:37;;;;;;;13.30;8.00;;;18.40;86.10;;;;;;5046811;28;20044;-68
2023/07/22 09:09:07;;;;;;;14.00;8.07;;;18.30;87.20;;;;;;5043074;28;20049;-66
2023/07/22 09:11:34;;;;;;;14.52;7.70;;;18.20;87.80;;;;;;5045774;28;20052;-67
2023/07/22 09:14:01;;;;;;;13.65;7.60;;;18.20;88.80;;;;;;5043032;28;20090;-67
2023/07/22 09:16:28;;;;;;;12.93;7.05;;;18.10;88.70;;;;;;5043284;28;20256;-67
2023/07/22 09:19:00;;;;;;;11.48;6.43;;;18.10;88.40;;;;;;5025126;28;20120;-67
2023/07/22 09:21:27;;;;;;;10.27;5.90;;;18.00;88.40;;;;;;5049338;28;20392;-67
2023/07/22 09:23:53;;;;;;;13.60;6.90;;;18.00;89.30;;;;;;5045512;28;20798;-68
2023/07/22 09:26:19;;;;;;;10.90;6.30;;;17.90;89.10;;;;;;5027065;28;20128;-69
2023/07/22 09:28:57;;;;;;;12.65;6.47;;;17.80;88.60;;;;;;5047787;28;20166;-67
2023/07/22 09:31:30;;;;;;;11.55;6.38;;;17.70;88.10;;;;;;5061574;28;20099;-68
2023/07/22 09:34:09;;;;;;;13.00;7.20;;;17.80;88.70;;;;;;5023402;28;20048;-67
2023/07/22 09:36:52;;;;;;;12.18;6.50;;;17.80;87.70;;;;;;5053474;28;20032;-67
2023/07/22 09:39:18;;;;;;;12.60;6.07;;;17.80;88.70;;;;;;5050327;28;20685;-70
2023/07/22 09:41:44;;;;;;;11.25;6.28;;;17.90;89.50;;;;;;5029973;28;20070;-68
2023/07/22 09:44:10;;;;;;;12.57;6.75;;;18.00;88.80;;;;;;5051070;28;20052;-69
2023/07/22 09:46:36;;;;;;;11.38;6.60;;;18.10;88.30;;;;;;5056552;28;20055;-69
2023/07/22 09:49:07;;;;;;;12.23;6.50;;;18.10;87.10;;;;;;5040530;28;20460;-68
2023/07/22 09:51:39;;;;;;;11.80;6.75;;;18.30;89.20;;;;;;5047363;28;20064;-70
2023/07/22 09:54:06;;;;;;;11.50;5.85;;;18.10;89.30;;;;;;5048684;28;20040;-68
2023/07/22 09:56:42;;;;;;;11.55;6.65;;;18.00;90.50;;;;;;5033302;28;20159;-68
2023/07/22 09:59:10;;;;;;;12.60;6.20;;;17.90;91.10;;;;;;5042784;28;20064;-68
2023/07/22 10:01:37;;;;;;;10.90;5.93;;;17.90;91.40;;;;;;5065956;28;20405;-67
2023/07/22 10:04:05;;;;;;;12.00;5.55;;;18.00;91.50;;;;;;5072324;28;20052;-68
2023/07/22 10:06:31;;;;;;;9.02;5.03;;;18.10;90.70;;;;;;5048717;28;20465;-67
2023/07/22 10:09:07;;;;;;;6.38;4.05;;;18.10;91.30;;;;;;5059273;28;20036;-67
2023/07/22 10:11:36;;;;;;;5.95;3.78;;;18.00;91.10;;;;;;5054884;28;20110;-68
2023/07/22 10:14:02;;;;;;;8.50;3.97;;;18.20;91.20;;;;;;5048945;28;20048;-68
2023/07/22 10:16:29;;;;;;;6.85;3.63;;;18.20;90.60;;;;;;5071297;28;20537;-67
2023/07/22 10:18:56;;;;;;;7.15;3.67;;;18.40;90.00;;;;;;5064746;28;20033;-68
2023/07/22 10:21:23;;;;;;;7.80;3.47;;;18.60;88.80;;;;;;5053774;28;20609;-67
2023/07/22 10:23:50;;;;;;;4.85;2.88;;;18.80;87.40;;;;;;5047440;28;20052;-68
2023/07/22 10:26:20;;;;;;;4.20;3.00;;;18.70;85.30;;;;;;5045357;28;20044;-67
2023/07/22 10:28:46;;;;;;;5.57;3.42;;;18.70;84.10;;;;;;5038025;28;20542;-67
2023/07/22 10:31:13;;;;;;;4.95;2.95;;;18.70;84.30;;;;;;5038209;28;20115;-67
2023/07/22 10:33:39;;;;;;;5.35;3.22;;;18.80;83.40;;;;;;5058816;28;20066;-67
2023/07/22 10:36:06;;;;;;;4.68;2.78;;;18.60;82.10;;;;;;5046507;28;20040;-67
2023/07/22 10:38:32;;;;;;;7.00;3.03;;;18.70;81.90;;;;;;5067610;28;20519;-67
2023/07/22 10:40:58;;;;;;;4.82;2.40;;;18.60;81.60;;;;;;5043816;28;20048;-67
2023/07/22 10:43:33;;;;;;;7.90;2.35;;;18.40;81.40;;;;;;5050761;28;20056;-67
2023/07/22 10:46:09;;;;;;;3.38;2.17;;;18.00;79.00;;;;;;5057249;28;20048;-67
2023/07/22 10:48:37;;;;;;;4.53;2.63;;;17.90;82.70;;;;;;5041984;28;20048;-67
2023/07/22 10:51:07;;;;;;;4.10;2.33;;;17.70;83.80;;;;;;5062415;28;20033;-68
2023/07/22 10:53:37;;;;;;;3.45;2.20;;;17.60;84.60;;;;;;5065808;28;20041;-68
2023/07/22 10:56:13;;;;;;;4.57;2.75;;;17.50;85.40;;;;;;5045066;28;20044;-68
2023/07/22 10:58:44;;;;;;;3.63;1.95;;;17.40;85.20;;;;;;5066198;28;20099;-68
2023/07/22 11:01:28;;;;;;;5.03;2.70;;;17.00;89.10;;;;;;5043723;28;20056;-68
2023/07/22 11:04:40;;;;;;;4.97;2.55;;;16.70;90.10;;;;;;5046405;28;20422;-68
2023/07/22 11:07:06;;;;;;;4.22;2.80;;;16.50;91.10;;;;;;5042715;28;20113;-68
2023/07/22 11:09:35;;;;;;;4.63;2.75;;;16.50;93.00;;;;;;5043672;28;20599;-68
2023/07/22 11:12:16;;;;;;;5.15;3.28;;;16.50;94.30;;;;;;5048532;28;20356;-68
2023/07/22 11:14:47;;;;;;;5.65;2.70;;;16.40;95.60;;;;;;5055707;28;20630;-68
2023/07/22 11:17:13;;;;;;;6.90;3.40;;;16.20;96.40;;;;;;5045840;28;20047;-67
2023/07/22 11:19:39;;;;;;;4.20;2.88;;;16.00;97.50;;;;;;5052073;28;20098;-69
2023/07/22 11:22:05;;;;;;;5.20;3.33;;;15.90;99.50;;;;;;5065948;28;20044;-68
2023/07/22 11:24:35;;;;;;;5.82;2.90;;;15.70;99.90;;;;;;5047268;28;20080;-70
2023/07/22 11:27:04;;;;;;;5.07;3.40;;;15.70;99.90;;;;;;5047589;28;20384;-70
2023/07/22 11:29:30;;;;;;;5.53;3.30;;;15.60;99.90;;;;;;5061766;28;20044;-69
2023/07/22 11:31:56;;;;;;;5.97;3.60;;;15.50;99.90;;;;;;5064371;28;20110;-69
2023/07/22 11:34:23;;;;;;;5.53;3.58;;;15.40;99.90;;;;;;5044316;28;20045;-70
2023/07/22 11:36:50;;;;;;;6.38;4.63;;;15.40;99.90;;;;;;5034013;28;20067;-70
2023/07/22 11:39:21;;;;;;;9.80;5.13;;;15.40;99.90;;;;;;5061160;28;20045;-71
2023/07/22 11:41:47;;;;;;;14.25;5.82;;;15.30;99.90;;;;;;5013235;28;20044;-70
2023/07/22 11:44:16;;;;;;;14.18;6.60;;;15.30;99.90;;;;;;5029613;28;20060;-70
2023/07/22 11:47:09;;;;;;;12.90;6.30;;;15.20;99.90;;;;;;5049995;28;20086;-68
2023/07/22 11:49:39;;;;;;;12.90;6.15;;;15.10;99.90;;;;;;5061124;28;20131;-69
2023/07/22 11:52:17;;;;;;;13.70;6.45;;;15.00;99.90;;;;;;5048652;28;20041;-69
2023/07/22 11:54:44;;;;;;;26.75;8.20;;;15.00;99.90;;;;;;5052910;28;20043;-69
2023/07/22 11:57:23;;;;;;;27.20;8.43;;;15.30;99.90;;;;;;5046940;28;20036;-69
2023/07/22 11:59:58;;;;;;;15.45;8.40;;;15.20;99.90;;;;;;5030456;28;20175;-70
2023/07/22 12:02:34;;;;;;;12.07;7.45;;;14.80;99.90;;;;;;5032004;28;20190;-68
2023/07/22 12:05:02;;;;;;;9.93;6.38;;;15.00;99.90;;;;;;5030247;28;20122;-68
2023/07/22 12:07:35;;;;;;;11.95;7.28;;;15.10;99.90;;;;;;5047153;28;20387;-68
2023/07/22 12:10:05;;;;;;;12.65;6.63;;;15.10;99.90;;;;;;5046016;28;20606;-68
2023/07/22 12:12:39;;;;;;;11.90;6.70;;;15.10;99.90;;;;;;5049300;28;20823;-68
2023/07/22 12:15:15;;;;;;;16.10;6.53;;;15.30;99.90;;;;;;5065835;28;20043;-67
2023/07/22 12:18:00;;;;;;;9.52;6.38;;;15.00;99.90;;;;;;5061877;28;20043;-68
2023/07/22 12:20:28;;;;;;;10.95;6.28;;;15.00;99.90;;;;;;5046242;28;20044;-68
2023/07/22 12:22:54;;;;;;;10.15;6.10;;;14.90;99.90;;;;;;5028422;28;20048;-68
2023/07/22 12:25:20;;;;;;;10.75;6.65;;;15.00;99.90;;;;;;5061992;28;20069;-68
2023/07/22 12:27:45;;;;;;;9.27;5.88;;;15.30;99.90;;;;;;5042539;28;20119;-68
2023/07/22 12:30:12;;;;;;;10.50;5.63;;;15.50;99.90;;;;;;5044368;28;20044;-68
2023/07/22 12:32:38;;;;;;;10.20;6.18;;;15.80;99.90;;;;;;5044281;28;20039;-68
2023/07/22 12:35:04;;;;;;;12.50;7.43;;;15.90;99.90;;;;;;5064688;28;20087;-68
2023/07/22 12:37:30;;;;;;;10.82;6.47;;;15.70;99.90;;;;;;5062916;28;20044;-68